sensor_id;sensor_type;location;lat;lon;timestamp;P1;durP1;ratioP1;P2;durP2;ratioP2
39032;SDS011;24794;51.982;5.878;2023-01-29T00:00:18;25.85;;;15.05;;
39032;SDS011;24794;51.982;5.878;2023-01-29T00:01:20;22.45;;;13.32;;
39032;SDS011;24794;51.982;5.878;2023-01-29T00:02:20;22.88;;;13.50;;
39032;SDS011;24794;51.982;5.878;2023-01-29T00:03:21;21.27;;;12.70;;
39032;SDS011;24794;51.982;5.878;2023-01-29T00:04:22;21.77;;;12.75;;
39032;SDS011;24794;51.982;5.878;2023-01-29T00:05:22;20.13;;;12.07;;
39032;SDS011;24794;51.982;5.878;2023-01-29T00:06:24;20.40;;;12.60;;
39032;SDS011;24794;51.982;5.878;2023-01-29T00:07:24;25.73;;;14.10;;
39032;SDS011;24794;51.982;5.878;2023-01-29T00:08:25;22.05;;;13.50;;
39032;SDS011;24794;51.982;5.878;2023-01-29T00:09:26;21.88;;;13.35;;
39032;SDS011;24794;51.982;5.878;2023-01-29T00:10:27;20.33;;;12.77;;
39032;SDS011;24794;51.982;5.878;2023-01-29T00:11:27;22.88;;;13.70;;
39032;SDS011;24794;51.982;5.878;2023-01-29T00:12:30;22.15;;;13.60;;
39032;SDS011;24794;51.982;5.878;2023-01-29T00:13:31;22.98;;;13.68;;
39032;SDS011;24794;51.982;5.878;2023-01-29T00:14:33;21.27;;;13.07;;
39032;SDS011;24794;51.982;5.878;2023-01-29T00:15:34;22.85;;;13.43;;
39032;SDS011;24794;51.982;5.878;2023-01-29T00:16:35;21.52;;;13.80;;
39032;SDS011;24794;51.982;5.878;2023-01-29T00:17:35;23.00;;;12.60;;
39032;SDS011;24794;51.982;5.878;2023-01-29T00:18:39;25.13;;;13.63;;
39032;SDS011;24794;51.982;5.878;2023-01-29T00:19:40;24.10;;;13.05;;
39032;SDS011;24794;51.982;5.878;2023-01-29T00:20:42;23.05;;;14.05;;
39032;SDS011;24794;51.982;5.878;2023-01-29T00:21:43;25.35;;;14.93;;
39032;SDS011;24794;51.982;5.878;2023-01-29T00:22:43;22.83;;;13.98;;
39032;SDS011;24794;51.982;5.878;2023-01-29T00:23:44;23.80;;;14.52;;
39032;SDS011;24794;51.982;5.878;2023-01-29T00:24:45;25.15;;;14.73;;
39032;SDS011;24794;51.982;5.878;2023-01-29T00:25:45;22.17;;;12.95;;
39032;SDS011;24794;51.982;5.878;2023-01-29T00:26:46;22.52;;;12.93;;
39032;SDS011;24794;51.982;5.878;2023-01-29T00:27:49;22.70;;;13.10;;
39032;SDS011;24794;51.982;5.878;2023-01-29T00:28:49;24.33;;;14.13;;
39032;SDS011;24794;51.982;5.878;2023-01-29T00:29:50;26.85;;;15.43;;
39032;SDS011;24794;51.982;5.878;2023-01-29T00:31:12;24.48;;;13.75;;
39032;SDS011;24794;51.982;5.878;2023-01-29T00:32:14;21.15;;;13.30;;
39032;SDS011;24794;51.982;5.878;2023-01-29T00:33:14;23.25;;;13.80;;
39032;SDS011;24794;51.982;5.878;2023-01-29T00:34:15;21.90;;;12.90;;
39032;SDS011;24794;51.982;5.878;2023-01-29T00:35:16;20.63;;;12.23;;
39032;SDS011;24794;51.982;5.878;2023-01-29T00:36:17;22.33;;;13.15;;
39032;SDS011;24794;51.982;5.878;2023-01-29T00:37:19;22.25;;;13.70;;
39032;SDS011;24794;51.982;5.878;2023-01-29T00:38:19;21.65;;;12.25;;
39032;SDS011;24794;51.982;5.878;2023-01-29T00:39:20;20.05;;;11.93;;
39032;SDS011;24794;51.982;5.878;2023-01-29T00:40:24;25.10;;;13.77;;
39032;SDS011;24794;51.982;5.878;2023-01-29T00:41:26;21.40;;;12.68;;
39032;SDS011;24794;51.982;5.878;2023-01-29T00:42:46;22.20;;;12.30;;
39032;SDS011;24794;51.982;5.878;2023-01-29T00:44:06;22.05;;;12.70;;
39032;SDS011;24794;51.982;5.878;2023-01-29T00:45:25;22.17;;;12.48;;
39032;SDS011;24794;51.982;5.878;2023-01-29T00:46:25;18.67;;;11.18;;
39032;SDS011;24794;51.982;5.878;2023-01-29T00:47:26;18.00;;;11.05;;
39032;SDS011;24794;51.982;5.878;2023-01-29T00:48:29;20.23;;;11.82;;
39032;SDS011;24794;51.982;5.878;2023-01-29T00:49:30;19.52;;;11.93;;
39032;SDS011;24794;51.982;5.878;2023-01-29T00:50:31;21.20;;;12.35;;
39032;SDS011;24794;51.982;5.878;2023-01-29T00:51:31;22.95;;;13.35;;
39032;SDS011;24794;51.982;5.878;2023-01-29T00:52:32;22.80;;;13.43;;
39032;SDS011;24794;51.982;5.878;2023-01-29T00:53:35;22.75;;;12.73;;
39032;SDS011;24794;51.982;5.878;2023-01-29T00:54:36;19.70;;;12.02;;
39032;SDS011;24794;51.982;5.878;2023-01-29T00:55:36;22.25;;;12.48;;
39032;SDS011;24794;51.982;5.878;2023-01-29T00:56:37;23.38;;;13.70;;
39032;SDS011;24794;51.982;5.878;2023-01-29T00:57:37;25.45;;;15.00;;
39032;SDS011;24794;51.982;5.878;2023-01-29T00:58:38;23.80;;;13.73;;
39032;SDS011;24794;51.982;5.878;2023-01-29T00:59:39;22.83;;;13.45;;
39032;SDS011;24794;51.982;5.878;2023-01-29T01:00:39;22.67;;;13.35;;
39032;SDS011;24794;51.982;5.878;2023-01-29T01:01:40;21.63;;;13.45;;
39032;SDS011;24794;51.982;5.878;2023-01-29T01:02:59;23.00;;;12.75;;
39032;SDS011;24794;51.982;5.878;2023-01-29T01:04:06;25.63;;;13.27;;
39032;SDS011;24794;51.982;5.878;2023-01-29T01:05:09;20.02;;;12.18;;
39032;SDS011;24794;51.982;5.878;2023-01-29T01:06:16;24.85;;;13.98;;
39032;SDS011;24794;51.982;5.878;2023-01-29T01:07:17;27.85;;;14.00;;
39032;SDS011;24794;51.982;5.878;2023-01-29T01:08:18;22.30;;;13.52;;
39032;SDS011;24794;51.982;5.878;2023-01-29T01:09:37;21.95;;;13.30;;
39032;SDS011;24794;51.982;5.878;2023-01-29T01:10:57;24.15;;;14.25;;
39032;SDS011;24794;51.982;5.878;2023-01-29T01:11:59;24.75;;;14.35;;
39032;SDS011;24794;51.982;5.878;2023-01-29T01:13:01;27.08;;;14.35;;
39032;SDS011;24794;51.982;5.878;2023-01-29T01:14:05;25.95;;;14.50;;
39032;SDS011;24794;51.982;5.878;2023-01-29T01:15:06;27.20;;;14.80;;
39032;SDS011;24794;51.982;5.878;2023-01-29T01:16:10;21.30;;;12.55;;
39032;SDS011;24794;51.982;5.878;2023-01-29T01:17:13;26.67;;;14.60;;
39032;SDS011;24794;51.982;5.878;2023-01-29T01:18:14;24.70;;;13.38;;
39032;SDS011;24794;51.982;5.878;2023-01-29T01:19:15;25.33;;;14.07;;
39032;SDS011;24794;51.982;5.878;2023-01-29T01:20:16;22.50;;;13.43;;
39032;SDS011;24794;51.982;5.878;2023-01-29T01:21:16;22.88;;;13.48;;
39032;SDS011;24794;51.982;5.878;2023-01-29T01:22:17;22.50;;;12.77;;
39032;SDS011;24794;51.982;5.878;2023-01-29T01:23:18;24.85;;;14.70;;
39032;SDS011;24794;51.982;5.878;2023-01-29T01:24:18;22.70;;;13.70;;
39032;SDS011;24794;51.982;5.878;2023-01-29T01:25:20;23.88;;;13.68;;
39032;SDS011;24794;51.982;5.878;2023-01-29T01:26:21;21.52;;;12.98;;
39032;SDS011;24794;51.982;5.878;2023-01-29T01:27:22;21.20;;;12.73;;
39032;SDS011;24794;51.982;5.878;2023-01-29T01:28:24;24.20;;;14.18;;
39032;SDS011;24794;51.982;5.878;2023-01-29T01:29:25;25.88;;;14.02;;
39032;SDS011;24794;51.982;5.878;2023-01-29T01:30:26;21.30;;;12.57;;
39032;SDS011;24794;51.982;5.878;2023-01-29T01:31:26;21.90;;;13.15;;
39032;SDS011;24794;51.982;5.878;2023-01-29T01:32:27;24.92;;;14.20;;
39032;SDS011;24794;51.982;5.878;2023-01-29T01:33:27;25.05;;;14.43;;
39032;SDS011;24794;51.982;5.878;2023-01-29T01:34:28;25.40;;;14.52;;
39032;SDS011;24794;51.982;5.878;2023-01-29T01:35:29;24.50;;;14.40;;
39032;SDS011;24794;51.982;5.878;2023-01-29T01:36:29;29.10;;;15.15;;
39032;SDS011;24794;51.982;5.878;2023-01-29T01:37:31;24.42;;;14.13;;
39032;SDS011;24794;51.982;5.878;2023-01-29T01:38:31;22.27;;;13.52;;
39032;SDS011;24794;51.982;5.878;2023-01-29T01:39:32;21.90;;;12.85;;
39032;SDS011;24794;51.982;5.878;2023-01-29T01:40:33;24.98;;;15.45;;
39032;SDS011;24794;51.982;5.878;2023-01-29T01:41:33;25.98;;;14.40;;
39032;SDS011;24794;51.982;5.878;2023-01-29T01:42:34;24.70;;;13.70;;
39032;SDS011;24794;51.982;5.878;2023-01-29T01:45:00;23.48;;;13.70;;
39032;SDS011;24794;51.982;5.878;2023-01-29T01:46:04;23.58;;;13.20;;
39032;SDS011;24794;51.982;5.878;2023-01-29T01:47:04;26.70;;;13.52;;
39032;SDS011;24794;51.982;5.878;2023-01-29T01:50:19;23.08;;;13.65;;
39032;SDS011;24794;51.982;5.878;2023-01-29T01:51:22;29.98;;;15.20;;
39032;SDS011;24794;51.982;5.878;2023-01-29T01:52:25;24.88;;;13.80;;
39032;SDS011;24794;51.982;5.878;2023-01-29T01:53:28;23.15;;;13.70;;
39032;SDS011;24794;51.982;5.878;2023-01-29T01:54:39;22.27;;;13.15;;
39032;SDS011;24794;51.982;5.878;2023-01-29T01:55:41;21.17;;;12.48;;
39032;SDS011;24794;51.982;5.878;2023-01-29T01:56:47;22.88;;;11.98;;
39032;SDS011;24794;51.982;5.878;2023-01-29T01:57:59;22.17;;;11.88;;
39032;SDS011;24794;51.982;5.878;2023-01-29T01:59:07;21.02;;;12.10;;
39032;SDS011;24794;51.982;5.878;2023-01-29T02:00:12;23.20;;;12.77;;
39032;SDS011;24794;51.982;5.878;2023-01-29T02:01:14;24.63;;;13.30;;
39032;SDS011;24794;51.982;5.878;2023-01-29T02:02:16;22.42;;;13.27;;
39032;SDS011;24794;51.982;5.878;2023-01-29T02:03:43;26.02;;;15.20;;
39032;SDS011;24794;51.982;5.878;2023-01-29T02:05:13;28.88;;;15.85;;
39032;SDS011;24794;51.982;5.878;2023-01-29T02:06:32;24.17;;;14.00;;
39032;SDS011;24794;51.982;5.878;2023-01-29T02:07:54;23.75;;;12.98;;
39032;SDS011;24794;51.982;5.878;2023-01-29T02:09:15;22.92;;;12.98;;
39032;SDS011;24794;51.982;5.878;2023-01-29T02:10:37;25.02;;;14.80;;
39032;SDS011;24794;51.982;5.878;2023-01-29T02:11:44;30.60;;;16.30;;
39032;SDS011;24794;51.982;5.878;2023-01-29T02:12:44;28.00;;;15.75;;
39032;SDS011;24794;51.982;5.878;2023-01-29T02:13:45;27.25;;;15.40;;
39032;SDS011;24794;51.982;5.878;2023-01-29T02:14:46;28.52;;;15.20;;
39032;SDS011;24794;51.982;5.878;2023-01-29T02:15:47;26.27;;;14.80;;
39032;SDS011;24794;51.982;5.878;2023-01-29T02:16:48;27.17;;;15.68;;
39032;SDS011;24794;51.982;5.878;2023-01-29T02:17:49;27.50;;;15.45;;
39032;SDS011;24794;51.982;5.878;2023-01-29T02:18:49;27.27;;;15.35;;
39032;SDS011;24794;51.982;5.878;2023-01-29T02:20:11;25.02;;;14.75;;
39032;SDS011;24794;51.982;5.878;2023-01-29T02:22:50;24.63;;;14.35;;
39032;SDS011;24794;51.982;5.878;2023-01-29T02:29:30;25.08;;;13.75;;
39032;SDS011;24794;51.982;5.878;2023-01-29T02:31:43;29.17;;;15.18;;
39032;SDS011;24794;51.982;5.878;2023-01-29T02:32:40;22.42;;;12.93;;
39032;SDS011;24794;51.982;5.878;2023-01-29T02:34:08;23.35;;;12.90;;
39032;SDS011;24794;51.982;5.878;2023-01-29T02:35:19;23.00;;;13.07;;
39032;SDS011;24794;51.982;5.878;2023-01-29T02:37:47;27.42;;;15.27;;
39032;SDS011;24794;51.982;5.878;2023-01-29T02:40:31;22.85;;;13.00;;
39032;SDS011;24794;51.982;5.878;2023-01-29T02:42:00;27.95;;;15.48;;
39032;SDS011;24794;51.982;5.878;2023-01-29T02:43:29;27.55;;;15.23;;
39032;SDS011;24794;51.982;5.878;2023-01-29T02:44:41;27.23;;;15.65;;
39032;SDS011;24794;51.982;5.878;2023-01-29T02:47:34;28.33;;;16.00;;
39032;SDS011;24794;51.982;5.878;2023-01-29T02:48:52;26.83;;;15.70;;
39032;SDS011;24794;51.982;5.878;2023-01-29T02:50:09;28.73;;;16.23;;
39032;SDS011;24794;51.982;5.878;2023-01-29T02:52:20;32.72;;;16.83;;
39032;SDS011;24794;51.982;5.878;2023-01-29T02:53:31;30.13;;;16.50;;
39032;SDS011;24794;51.982;5.878;2023-01-29T02:54:50;34.95;;;17.88;;
39032;SDS011;24794;51.982;5.878;2023-01-29T02:56:12;28.55;;;15.95;;
39032;SDS011;24794;51.982;5.878;2023-01-29T02:57:22;29.35;;;15.25;;
39032;SDS011;24794;51.982;5.878;2023-01-29T02:58:44;26.45;;;14.40;;
39032;SDS011;24794;51.982;5.878;2023-01-29T02:59:51;28.52;;;15.68;;
39032;SDS011;24794;51.982;5.878;2023-01-29T03:01:15;27.45;;;14.27;;
39032;SDS011;24794;51.982;5.878;2023-01-29T03:02:20;26.60;;;14.77;;
39032;SDS011;24794;51.982;5.878;2023-01-29T03:03:30;25.83;;;13.80;;
39032;SDS011;24794;51.982;5.878;2023-01-29T03:04:36;25.55;;;14.07;;
39032;SDS011;24794;51.982;5.878;2023-01-29T03:06:53;24.85;;;14.95;;
39032;SDS011;24794;51.982;5.878;2023-01-29T03:08:10;23.27;;;13.88;;
39032;SDS011;24794;51.982;5.878;2023-01-29T03:09:19;32.13;;;17.58;;
39032;SDS011;24794;51.982;5.878;2023-01-29T03:10:47;28.35;;;15.52;;
39032;SDS011;24794;51.982;5.878;2023-01-29T03:12:06;28.77;;;15.50;;
39032;SDS011;24794;51.982;5.878;2023-01-29T03:13:44;24.67;;;14.32;;
39032;SDS011;24794;51.982;5.878;2023-01-29T03:14:48;26.35;;;14.52;;
39032;SDS011;24794;51.982;5.878;2023-01-29T03:16:17;24.48;;;13.32;;
39032;SDS011;24794;51.982;5.878;2023-01-29T03:17:29;28.33;;;15.77;;
39032;SDS011;24794;51.982;5.878;2023-01-29T03:18:37;24.77;;;15.23;;
39032;SDS011;24794;51.982;5.878;2023-01-29T03:19:45;25.05;;;14.45;;
39032;SDS011;24794;51.982;5.878;2023-01-29T03:20:52;28.10;;;13.35;;
39032;SDS011;24794;51.982;5.878;2023-01-29T03:22:23;27.10;;;14.38;;
39032;SDS011;24794;51.982;5.878;2023-01-29T03:23:31;28.77;;;15.18;;
39032;SDS011;24794;51.982;5.878;2023-01-29T03:24:53;23.48;;;13.65;;
39032;SDS011;24794;51.982;5.878;2023-01-29T03:26:15;23.73;;;12.77;;
39032;SDS011;24794;51.982;5.878;2023-01-29T03:27:39;26.48;;;14.02;;
39032;SDS011;24794;51.982;5.878;2023-01-29T03:29:04;28.70;;;16.52;;
39032;SDS011;24794;51.982;5.878;2023-01-29T03:30:26;32.08;;;17.27;;
39032;SDS011;24794;51.982;5.878;2023-01-29T03:31:48;27.65;;;15.93;;
39032;SDS011;24794;51.982;5.878;2023-01-29T03:33:04;24.15;;;13.85;;
39032;SDS011;24794;51.982;5.878;2023-01-29T03:34:10;29.48;;;16.30;;
39032;SDS011;24794;51.982;5.878;2023-01-29T03:35:18;27.85;;;15.25;;
39032;SDS011;24794;51.982;5.878;2023-01-29T03:36:36;39.20;;;17.02;;
39032;SDS011;24794;51.982;5.878;2023-01-29T03:37:45;25.92;;;15.10;;
39032;SDS011;24794;51.982;5.878;2023-01-29T03:38:47;31.33;;;17.50;;
39032;SDS011;24794;51.982;5.878;2023-01-29T03:39:48;28.02;;;16.40;;
39032;SDS011;24794;51.982;5.878;2023-01-29T03:40:51;27.13;;;15.25;;
39032;SDS011;24794;51.982;5.878;2023-01-29T03:46:59;30.48;;;17.83;;
39032;SDS011;24794;51.982;5.878;2023-01-29T03:48:22;28.20;;;16.60;;
39032;SDS011;24794;51.982;5.878;2023-01-29T03:49:42;30.30;;;15.98;;
39032;SDS011;24794;51.982;5.878;2023-01-29T03:50:55;32.05;;;17.80;;
39032;SDS011;24794;51.982;5.878;2023-01-29T03:52:26;30.88;;;16.48;;
39032;SDS011;24794;51.982;5.878;2023-01-29T03:55:23;27.92;;;14.15;;
39032;SDS011;24794;51.982;5.878;2023-01-29T03:56:51;27.20;;;15.73;;
39032;SDS011;24794;51.982;5.878;2023-01-29T03:59:46;30.15;;;16.77;;
39032;SDS011;24794;51.982;5.878;2023-01-29T04:00:56;27.67;;;15.88;;
39032;SDS011;24794;51.982;5.878;2023-01-29T04:02:02;31.38;;;17.15;;
39032;SDS011;24794;51.982;5.878;2023-01-29T04:04:25;30.42;;;16.45;;
39032;SDS011;24794;51.982;5.878;2023-01-29T04:05:29;28.45;;;16.00;;
39032;SDS011;24794;51.982;5.878;2023-01-29T04:06:34;29.80;;;16.73;;
39032;SDS011;24794;51.982;5.878;2023-01-29T04:07:38;31.80;;;15.98;;
39032;SDS011;24794;51.982;5.878;2023-01-29T04:08:51;29.77;;;16.83;;
39032;SDS011;24794;51.982;5.878;2023-01-29T04:09:56;32.08;;;18.25;;
39032;SDS011;24794;51.982;5.878;2023-01-29T04:11:18;32.22;;;17.05;;
39032;SDS011;24794;51.982;5.878;2023-01-29T04:12:23;30.90;;;16.88;;
39032;SDS011;24794;51.982;5.878;2023-01-29T04:13:27;26.70;;;15.75;;
39032;SDS011;24794;51.982;5.878;2023-01-29T04:14:32;28.75;;;16.05;;
39032;SDS011;24794;51.982;5.878;2023-01-29T04:15:35;27.85;;;16.05;;
39032;SDS011;24794;51.982;5.878;2023-01-29T04:16:45;30.40;;;15.90;;
39032;SDS011;24794;51.982;5.878;2023-01-29T04:17:50;30.95;;;16.05;;
39032;SDS011;24794;51.982;5.878;2023-01-29T04:18:52;30.50;;;16.20;;
39032;SDS011;24794;51.982;5.878;2023-01-29T04:19:53;32.13;;;17.08;;
39032;SDS011;24794;51.982;5.878;2023-01-29T04:20:54;33.60;;;18.08;;
39032;SDS011;24794;51.982;5.878;2023-01-29T04:22:05;34.95;;;18.10;;
39032;SDS011;24794;51.982;5.878;2023-01-29T04:24:38;27.17;;;15.77;;
39032;SDS011;24794;51.982;5.878;2023-01-29T04:25:42;29.23;;;16.88;;
39032;SDS011;24794;51.982;5.878;2023-01-29T04:29:31;33.55;;;17.75;;
39032;SDS011;24794;51.982;5.878;2023-01-29T04:31:02;31.67;;;17.52;;
39032;SDS011;24794;51.982;5.878;2023-01-29T04:33:28;34.60;;;17.45;;
39032;SDS011;24794;51.982;5.878;2023-01-29T04:39:42;30.42;;;16.25;;
39032;SDS011;24794;51.982;5.878;2023-01-29T04:42:13;26.80;;;15.55;;
39032;SDS011;24794;51.982;5.878;2023-01-29T04:43:25;26.30;;;14.32;;
39032;SDS011;24794;51.982;5.878;2023-01-29T04:44:36;32.08;;;18.35;;
39032;SDS011;24794;51.982;5.878;2023-01-29T04:50:39;31.55;;;16.42;;
39032;SDS011;24794;51.982;5.878;2023-01-29T04:51:39;33.13;;;17.85;;
39032;SDS011;24794;51.982;5.878;2023-01-29T04:54:03;33.15;;;18.45;;
39032;SDS011;24794;51.982;5.878;2023-01-29T04:55:33;36.95;;;19.15;;
39032;SDS011;24794;51.982;5.878;2023-01-29T04:57:07;31.75;;;17.23;;
39032;SDS011;24794;51.982;5.878;2023-01-29T04:58:56;32.58;;;17.48;;
39032;SDS011;24794;51.982;5.878;2023-01-29T04:59:40;33.38;;;18.17;;
39032;SDS011;24794;51.982;5.878;2023-01-29T05:00:47;31.65;;;18.45;;
39032;SDS011;24794;51.982;5.878;2023-01-29T05:01:52;35.20;;;18.67;;
39032;SDS011;24794;51.982;5.878;2023-01-29T05:02:52;31.73;;;17.63;;
39032;SDS011;24794;51.982;5.878;2023-01-29T05:03:53;34.47;;;18.55;;
39032;SDS011;24794;51.982;5.878;2023-01-29T05:04:56;31.17;;;16.88;;
39032;SDS011;24794;51.982;5.878;2023-01-29T05:05:58;33.03;;;18.55;;
39032;SDS011;24794;51.982;5.878;2023-01-29T05:07:02;31.42;;;17.80;;
39032;SDS011;24794;51.982;5.878;2023-01-29T05:08:05;32.17;;;17.80;;
39032;SDS011;24794;51.982;5.878;2023-01-29T05:09:07;32.75;;;17.67;;
39032;SDS011;24794;51.982;5.878;2023-01-29T05:10:09;32.10;;;18.20;;
39032;SDS011;24794;51.982;5.878;2023-01-29T05:11:11;32.30;;;18.20;;
39032;SDS011;24794;51.982;5.878;2023-01-29T05:12:13;32.67;;;17.92;;
39032;SDS011;24794;51.982;5.878;2023-01-29T05:13:16;37.10;;;20.45;;
39032;SDS011;24794;51.982;5.878;2023-01-29T05:14:19;34.42;;;19.02;;
39032;SDS011;24794;51.982;5.878;2023-01-29T05:15:22;33.72;;;18.35;;
39032;SDS011;24794;51.982;5.878;2023-01-29T05:16:28;29.27;;;16.83;;
39032;SDS011;24794;51.982;5.878;2023-01-29T05:17:41;40.25;;;25.40;;
39032;SDS011;24794;51.982;5.878;2023-01-29T05:18:41;35.47;;;22.05;;
39032;SDS011;24794;51.982;5.878;2023-01-29T05:19:42;36.97;;;20.35;;
39032;SDS011;24794;51.982;5.878;2023-01-29T05:20:44;34.33;;;19.60;;
39032;SDS011;24794;51.982;5.878;2023-01-29T05:21:47;40.03;;;21.80;;
39032;SDS011;24794;51.982;5.878;2023-01-29T05:22:48;33.63;;;20.02;;
39032;SDS011;24794;51.982;5.878;2023-01-29T05:24:05;34.33;;;19.63;;
39032;SDS011;24794;51.982;5.878;2023-01-29T05:25:21;41.10;;;23.35;;
39032;SDS011;24794;51.982;5.878;2023-01-29T05:26:24;39.55;;;23.75;;
39032;SDS011;24794;51.982;5.878;2023-01-29T05:27:45;36.13;;;21.15;;
39032;SDS011;24794;51.982;5.878;2023-01-29T05:29:06;36.60;;;20.23;;
39032;SDS011;24794;51.982;5.878;2023-01-29T05:30:07;37.53;;;20.23;;
39032;SDS011;24794;51.982;5.878;2023-01-29T05:31:09;37.20;;;24.05;;
39032;SDS011;24794;51.982;5.878;2023-01-29T05:32:09;31.85;;;20.58;;
39032;SDS011;24794;51.982;5.878;2023-01-29T05:33:12;40.50;;;26.42;;
39032;SDS011;24794;51.982;5.878;2023-01-29T05:34:15;36.70;;;21.35;;
39032;SDS011;24794;51.982;5.878;2023-01-29T05:35:15;33.42;;;20.10;;
39032;SDS011;24794;51.982;5.878;2023-01-29T05:36:16;34.90;;;19.00;;
39032;SDS011;24794;51.982;5.878;2023-01-29T05:37:17;36.13;;;21.52;;
39032;SDS011;24794;51.982;5.878;2023-01-29T05:38:17;36.63;;;19.88;;
39032;SDS011;24794;51.982;5.878;2023-01-29T05:39:19;35.15;;;19.15;;
39032;SDS011;24794;51.982;5.878;2023-01-29T05:40:19;35.47;;;19.75;;
39032;SDS011;24794;51.982;5.878;2023-01-29T05:41:20;34.75;;;19.70;;
39032;SDS011;24794;51.982;5.878;2023-01-29T05:42:20;37.95;;;21.75;;
39032;SDS011;24794;51.982;5.878;2023-01-29T05:43:22;37.05;;;19.63;;
39032;SDS011;24794;51.982;5.878;2023-01-29T05:44:23;33.30;;;19.33;;
39032;SDS011;24794;51.982;5.878;2023-01-29T05:45:24;36.15;;;20.67;;
39032;SDS011;24794;51.982;5.878;2023-01-29T05:46:25;37.28;;;20.88;;
39032;SDS011;24794;51.982;5.878;2023-01-29T05:47:25;34.95;;;20.05;;
39032;SDS011;24794;51.982;5.878;2023-01-29T05:48:27;33.70;;;18.77;;
39032;SDS011;24794;51.982;5.878;2023-01-29T05:49:28;38.67;;;20.33;;
39032;SDS011;24794;51.982;5.878;2023-01-29T05:50:29;32.72;;;18.67;;
39032;SDS011;24794;51.982;5.878;2023-01-29T05:51:30;35.83;;;19.10;;
39032;SDS011;24794;51.982;5.878;2023-01-29T05:52:31;34.85;;;19.67;;
39032;SDS011;24794;51.982;5.878;2023-01-29T05:53:32;34.00;;;19.23;;
39032;SDS011;24794;51.982;5.878;2023-01-29T05:54:33;37.63;;;20.33;;
39032;SDS011;24794;51.982;5.878;2023-01-29T05:55:33;37.30;;;20.05;;
39032;SDS011;24794;51.982;5.878;2023-01-29T05:56:34;35.28;;;19.85;;
39032;SDS011;24794;51.982;5.878;2023-01-29T05:57:34;34.90;;;20.08;;
39032;SDS011;24794;51.982;5.878;2023-01-29T05:58:35;31.73;;;19.50;;
39032;SDS011;24794;51.982;5.878;2023-01-29T05:59:36;35.55;;;19.83;;
39032;SDS011;24794;51.982;5.878;2023-01-29T06:00:37;35.45;;;19.60;;
39032;SDS011;24794;51.982;5.878;2023-01-29T06:01:38;32.55;;;18.20;;
39032;SDS011;24794;51.982;5.878;2023-01-29T06:02:38;38.15;;;21.98;;
39032;SDS011;24794;51.982;5.878;2023-01-29T06:03:39;34.88;;;21.05;;
39032;SDS011;24794;51.982;5.878;2023-01-29T06:04:40;38.83;;;22.17;;
39032;SDS011;24794;51.982;5.878;2023-01-29T06:05:40;35.97;;;20.40;;
39032;SDS011;24794;51.982;5.878;2023-01-29T06:06:41;35.40;;;19.92;;
39032;SDS011;24794;51.982;5.878;2023-01-29T06:07:41;35.90;;;19.88;;
39032;SDS011;24794;51.982;5.878;2023-01-29T06:08:44;34.30;;;19.70;;
39032;SDS011;24794;51.982;5.878;2023-01-29T06:09:45;34.38;;;19.40;;
39032;SDS011;24794;51.982;5.878;2023-01-29T06:10:45;32.83;;;19.73;;
39032;SDS011;24794;51.982;5.878;2023-01-29T06:11:46;36.10;;;21.17;;
39032;SDS011;24794;51.982;5.878;2023-01-29T06:12:46;34.90;;;19.75;;
39032;SDS011;24794;51.982;5.878;2023-01-29T06:13:47;35.08;;;21.08;;
39032;SDS011;24794;51.982;5.878;2023-01-29T06:14:48;35.22;;;20.50;;
39032;SDS011;24794;51.982;5.878;2023-01-29T06:15:49;34.03;;;18.77;;
39032;SDS011;24794;51.982;5.878;2023-01-29T06:16:50;43.05;;;24.55;;
39032;SDS011;24794;51.982;5.878;2023-01-29T06:17:54;42.10;;;22.50;;
39032;SDS011;24794;51.982;5.878;2023-01-29T06:18:55;37.00;;;20.88;;
39032;SDS011;24794;51.982;5.878;2023-01-29T06:19:56;35.22;;;21.05;;
39032;SDS011;24794;51.982;5.878;2023-01-29T06:20:59;34.33;;;19.45;;
39032;SDS011;24794;51.982;5.878;2023-01-29T06:22:01;38.03;;;20.50;;
39032;SDS011;24794;51.982;5.878;2023-01-29T06:23:02;37.10;;;22.30;;
39032;SDS011;24794;51.982;5.878;2023-01-29T06:24:02;42.25;;;22.58;;
39032;SDS011;24794;51.982;5.878;2023-01-29T06:25:03;38.05;;;21.77;;
39032;SDS011;24794;51.982;5.878;2023-01-29T06:26:06;36.65;;;20.77;;
39032;SDS011;24794;51.982;5.878;2023-01-29T06:27:09;35.33;;;20.08;;
39032;SDS011;24794;51.982;5.878;2023-01-29T06:28:09;36.53;;;21.05;;
39032;SDS011;24794;51.982;5.878;2023-01-29T06:29:10;34.55;;;20.45;;
39032;SDS011;24794;51.982;5.878;2023-01-29T06:30:11;37.83;;;21.23;;
39032;SDS011;24794;51.982;5.878;2023-01-29T06:31:11;36.90;;;21.52;;
39032;SDS011;24794;51.982;5.878;2023-01-29T06:32:12;40.00;;;22.48;;
39032;SDS011;24794;51.982;5.878;2023-01-29T06:33:13;38.22;;;21.17;;
39032;SDS011;24794;51.982;5.878;2023-01-29T06:34:13;35.60;;;19.83;;
39032;SDS011;24794;51.982;5.878;2023-01-29T06:35:14;32.42;;;18.48;;
39032;SDS011;24794;51.982;5.878;2023-01-29T06:36:14;34.97;;;20.65;;
39032;SDS011;24794;51.982;5.878;2023-01-29T06:37:15;35.95;;;20.52;;
39032;SDS011;24794;51.982;5.878;2023-01-29T06:38:16;35.45;;;20.52;;
39032;SDS011;24794;51.982;5.878;2023-01-29T06:39:16;33.67;;;18.80;;
39032;SDS011;24794;51.982;5.878;2023-01-29T06:40:17;35.28;;;20.80;;
39032;SDS011;24794;51.982;5.878;2023-01-29T06:41:19;44.05;;;24.63;;
39032;SDS011;24794;51.982;5.878;2023-01-29T06:42:24;36.63;;;20.38;;
39032;SDS011;24794;51.982;5.878;2023-01-29T06:43:26;35.15;;;19.48;;
39032;SDS011;24794;51.982;5.878;2023-01-29T06:44:27;38.50;;;22.25;;
39032;SDS011;24794;51.982;5.878;2023-01-29T06:45:28;37.50;;;21.13;;
39032;SDS011;24794;51.982;5.878;2023-01-29T06:46:28;41.20;;;23.10;;
39032;SDS011;24794;51.982;5.878;2023-01-29T06:47:29;40.55;;;21.20;;
39032;SDS011;24794;51.982;5.878;2023-01-29T06:48:30;42.15;;;24.02;;
39032;SDS011;24794;51.982;5.878;2023-01-29T06:49:30;39.88;;;21.52;;
39032;SDS011;24794;51.982;5.878;2023-01-29T06:50:31;38.38;;;21.58;;
39032;SDS011;24794;51.982;5.878;2023-01-29T06:51:31;35.03;;;19.58;;
39032;SDS011;24794;51.982;5.878;2023-01-29T06:52:32;33.03;;;16.83;;
39032;SDS011;24794;51.982;5.878;2023-01-29T06:53:33;36.45;;;20.80;;
39032;SDS011;24794;51.982;5.878;2023-01-29T06:54:34;35.72;;;19.75;;
39032;SDS011;24794;51.982;5.878;2023-01-29T06:55:34;36.80;;;20.92;;
39032;SDS011;24794;51.982;5.878;2023-01-29T06:56:35;34.70;;;19.35;;
39032;SDS011;24794;51.982;5.878;2023-01-29T06:57:36;39.45;;;21.23;;
39032;SDS011;24794;51.982;5.878;2023-01-29T06:58:37;38.17;;;22.02;;
39032;SDS011;24794;51.982;5.878;2023-01-29T06:59:37;35.80;;;20.10;;
39032;SDS011;24794;51.982;5.878;2023-01-29T07:00:38;33.75;;;18.50;;
39032;SDS011;24794;51.982;5.878;2023-01-29T07:01:39;35.08;;;19.55;;
39032;SDS011;24794;51.982;5.878;2023-01-29T07:02:41;40.67;;;22.08;;
39032;SDS011;24794;51.982;5.878;2023-01-29T07:03:42;39.55;;;22.10;;
39032;SDS011;24794;51.982;5.878;2023-01-29T07:04:43;33.17;;;19.02;;
39032;SDS011;24794;51.982;5.878;2023-01-29T07:05:49;34.25;;;19.55;;
39032;SDS011;24794;51.982;5.878;2023-01-29T07:06:51;39.30;;;21.83;;
39032;SDS011;24794;51.982;5.878;2023-01-29T07:07:51;38.78;;;20.60;;
39032;SDS011;24794;51.982;5.878;2023-01-29T07:08:52;40.30;;;22.30;;
39032;SDS011;24794;51.982;5.878;2023-01-29T07:09:53;38.25;;;21.20;;